SBOSBO LCA / LCLK
Speedbird OnlineSpeedbird Online LCA / LCLK

Larnaca International Airport
09:37 26.6°C

Location Larnaca, Cyprus
Latitude: 34.875099182128906
Longitude: 33.624900817871094
Web Airport Website | Wikipedia
Altitude 2 Meter / 8 Feet
Distance 3,241 KM / 2,014 Miles
from London.
Time Zone UTC +3 hours (Asia/Nicosia)
Codes IATA: LCA
ICAO: LCLK
Currency £1 equals EUR 1.15
Runways
RunwayLength (m)Surface
042994Asphalt
222994Asphalt
Radio
TypeDescriptionFrequency
APPAPP121.2
ATISATIS126.55
TWRTWR119.4
Live ATC
METAR LCLK 060600Z 30004KT 270V330 9999 FEW025 27/17 Q1015 NOSIG
TAF TAF LCLK 060530Z 0606/0706 30007 9999 FEW025 BECMG 0607/0610 19012KT BECMG 0616/0620 28007KT
Weather As Of 06 Oct 2022 09:35
Description Few clouds
Wind 7 km/h from North-West (300°)
Cloud Cover 20%
Precipitation Rain: none, Snow: none
Sunrise 06:43
Sunset 18:23
Lounges Aspire Aphrodite Lounge , Main
Rotations During the last 90 days there were
286 flights from LHR
23 flights from LGW
286 flights to LHR
22 flights to LGW


© 2017-2022 Speedbird Online